sensor_id;sensor_type;location;lat;lon;timestamp;pressure;altitude;pressure_sealevel;temperature
55038;BMP280;40937;53.594;10.034;2024-03-25T00:02:18;100094.75;;;6.85
55038;BMP280;40937;53.594;10.034;2024-03-25T00:04:46;100096.94;;;6.88
55038;BMP280;40937;53.594;10.034;2024-03-25T00:07:13;100100.22;;;6.83
55038;BMP280;40937;53.594;10.034;2024-03-25T00:09:41;100099.13;;;6.91
55038;BMP280;40937;53.594;10.034;2024-03-25T00:12:07;100107.28;;;7.01
55038;BMP280;40937;53.594;10.034;2024-03-25T00:14:34;100106.31;;;6.96
55038;BMP280;40937;53.594;10.034;2024-03-25T00:17:02;100111.72;;;7.01
55038;BMP280;40937;53.594;10.034;2024-03-25T00:19:30;100111.50;;;7.02
55038;BMP280;40937;53.594;10.034;2024-03-25T00:21:57;100118.03;;;6.93
55038;BMP280;40937;53.594;10.034;2024-03-25T00:24:26;100114.94;;;6.84
55038;BMP280;40937;53.594;10.034;2024-03-25T00:26:52;100123.38;;;6.87
55038;BMP280;40937;53.594;10.034;2024-03-25T00:29:19;100125.56;;;6.90
55038;BMP280;40937;53.594;10.034;2024-03-25T00:31:46;100126.28;;;6.97
55038;BMP280;40937;53.594;10.034;2024-03-25T00:34:13;100127.81;;;6.86
55038;BMP280;40937;53.594;10.034;2024-03-25T00:36:39;100130.59;;;6.91
55038;BMP280;40937;53.594;10.034;2024-03-25T00:39:07;100134.13;;;6.97
55038;BMP280;40937;53.594;10.034;2024-03-25T00:41:35;100135.81;;;6.91
55038;BMP280;40937;53.594;10.034;2024-03-25T00:44:02;100137.56;;;6.79
55038;BMP280;40937;53.594;10.034;2024-03-25T00:46:29;100141.13;;;6.84
55038;BMP280;40937;53.594;10.034;2024-03-25T00:48:57;100141.78;;;6.80
55038;BMP280;40937;53.594;10.034;2024-03-25T00:51:24;100143.09;;;6.71
55038;BMP280;40937;53.594;10.034;2024-03-25T00:53:53;100143.09;;;6.71
55038;BMP280;40937;53.594;10.034;2024-03-25T00:56:20;100154.19;;;6.73
55038;BMP280;40937;53.594;10.034;2024-03-25T00:58:51;100154.88;;;6.80
55038;BMP280;40937;53.594;10.034;2024-03-25T01:01:17;100160.88;;;6.87
55038;BMP280;40937;53.594;10.034;2024-03-25T01:03:44;100154.03;;;6.86
55038;BMP280;40937;53.594;10.034;2024-03-25T01:06:10;100156.88;;;6.84
55038;BMP280;40937;53.594;10.034;2024-03-25T01:08:37;100165.38;;;6.80
55038;BMP280;40937;53.594;10.034;2024-03-25T01:11:04;100162.91;;;6.85
55038;BMP280;40937;53.594;10.034;2024-03-25T01:13:32;100170.63;;;6.80
55038;BMP280;40937;53.594;10.034;2024-03-25T01:15:59;100172.00;;;6.82
55038;BMP280;40937;53.594;10.034;2024-03-25T01:18:27;100173.34;;;6.73
55038;BMP280;40937;53.594;10.034;2024-03-25T01:20:56;100171.66;;;6.60
55038;BMP280;40937;53.594;10.034;2024-03-25T01:23:23;100175.13;;;6.54
55038;BMP280;40937;53.594;10.034;2024-03-25T01:25:49;100173.75;;;6.52
55038;BMP280;40937;53.594;10.034;2024-03-25T01:28:17;100171.25;;;6.57
55038;BMP280;40937;53.594;10.034;2024-03-25T01:30:46;100171.81;;;6.65
55038;BMP280;40937;53.594;10.034;2024-03-25T01:33:14;100187.22;;;6.74
55038;BMP280;40937;53.594;10.034;2024-03-25T01:35:41;100187.66;;;6.71
55038;BMP280;40937;53.594;10.034;2024-03-25T01:38:08;100182.84;;;6.68
55038;BMP280;40937;53.594;10.034;2024-03-25T01:40:34;100185.03;;;6.71
55038;BMP280;40937;53.594;10.034;2024-03-25T01:43:06;100186.34;;;6.61
55038;BMP280;40937;53.594;10.034;2024-03-25T01:45:34;100187.53;;;6.65
55038;BMP280;40937;53.594;10.034;2024-03-25T01:48:03;100190.56;;;6.62
55038;BMP280;40937;53.594;10.034;2024-03-25T01:50:36;100190.28;;;6.71
55038;BMP280;40937;53.594;10.034;2024-03-25T01:53:05;100195.94;;;6.68
55038;BMP280;40937;53.594;10.034;2024-03-25T01:55:34;100200.94;;;6.76
55038;BMP280;40937;53.594;10.034;2024-03-25T01:58:11;100201.25;;;6.61
55038;BMP280;40937;53.594;10.034;2024-03-25T02:00:38;100208.63;;;6.71
55038;BMP280;40937;53.594;10.034;2024-03-25T02:03:05;100210.06;;;6.66
55038;BMP280;40937;53.594;10.034;2024-03-25T02:05:34;100217.09;;;6.73
55038;BMP280;40937;53.594;10.034;2024-03-25T02:08:03;100217.31;;;6.71
55038;BMP280;40937;53.594;10.034;2024-03-25T02:10:32;100217.88;;;6.73
55038;BMP280;40937;53.594;10.034;2024-03-25T02:13:00;100225.59;;;6.68
55038;BMP280;40937;53.594;10.034;2024-03-25T02:15:27;100233.28;;;6.63
55038;BMP280;40937;53.594;10.034;2024-03-25T02:17:55;100232.94;;;6.59
55038;BMP280;40937;53.594;10.034;2024-03-25T02:20:21;100239.38;;;6.57
55038;BMP280;40937;53.594;10.034;2024-03-25T02:22:50;100244.25;;;6.53
55038;BMP280;40937;53.594;10.034;2024-03-25T02:25:17;100245.13;;;6.47
55038;BMP280;40937;53.594;10.034;2024-03-25T02:27:48;100249.94;;;6.50
55038;BMP280;40937;53.594;10.034;2024-03-25T02:30:16;100241.78;;;6.58
55038;BMP280;40937;53.594;10.034;2024-03-25T02:32:46;100247.75;;;6.47
55038;BMP280;40937;53.594;10.034;2024-03-25T02:35:15;100244.91;;;6.49
55038;BMP280;40937;53.594;10.034;2024-03-25T02:37:43;100248.38;;;6.42
55038;BMP280;40937;53.594;10.034;2024-03-25T02:40:12;100250.44;;;6.34
55038;BMP280;40937;53.594;10.034;2024-03-25T02:42:46;100247.56;;;6.42
55038;BMP280;40937;53.594;10.034;2024-03-25T02:45:15;100256.34;;;6.29
55038;BMP280;40937;53.594;10.034;2024-03-25T02:47:43;100259.13;;;6.34
55038;BMP280;40937;53.594;10.034;2024-03-25T02:50:09;100254.31;;;6.31
55038;BMP280;40937;53.594;10.034;2024-03-25T02:52:41;100254.19;;;6.19
55038;BMP280;40937;53.594;10.034;2024-03-25T02:55:07;100245.66;;;6.31
55038;BMP280;40937;53.594;10.034;2024-03-25T02:57:37;100257.53;;;6.26
55038;BMP280;40937;53.594;10.034;2024-03-25T03:00:08;100253.72;;;6.29
55038;BMP280;40937;53.594;10.034;2024-03-25T03:02:39;100258.50;;;6.32
55038;BMP280;40937;53.594;10.034;2024-03-25T03:05:05;100260.34;;;6.32
55038;BMP280;40937;53.594;10.034;2024-03-25T03:07:33;100270.66;;;6.26
55038;BMP280;40937;53.594;10.034;2024-03-25T03:09:59;100274.19;;;6.39
55038;BMP280;40937;53.594;10.034;2024-03-25T03:12:26;100277.84;;;6.38
55038;BMP280;40937;53.594;10.034;2024-03-25T03:14:53;100285.41;;;6.46
55038;BMP280;40937;53.594;10.034;2024-03-25T03:17:21;100286.69;;;6.37
55038;BMP280;40937;53.594;10.034;2024-03-25T03:19:47;100289.31;;;6.37
55038;BMP280;40937;53.594;10.034;2024-03-25T03:22:15;100299.13;;;6.48
55038;BMP280;40937;53.594;10.034;2024-03-25T03:24:41;100301.56;;;6.43
55038;BMP280;40937;53.594;10.034;2024-03-25T03:27:09;100310.06;;;6.38
55038;BMP280;40937;53.594;10.034;2024-03-25T03:29:35;100315.06;;;6.40
55038;BMP280;40937;53.594;10.034;2024-03-25T03:32:06;100316.97;;;6.33
55038;BMP280;40937;53.594;10.034;2024-03-25T03:34:34;100322.50;;;6.43
55038;BMP280;40937;53.594;10.034;2024-03-25T03:37:01;100330.22;;;6.38
55038;BMP280;40937;53.594;10.034;2024-03-25T03:39:27;100327.97;;;6.41
55038;BMP280;40937;53.594;10.034;2024-03-25T03:41:55;100333.41;;;6.40
55038;BMP280;40937;53.594;10.034;2024-03-25T03:44:22;100342.31;;;6.39
55038;BMP280;40937;53.594;10.034;2024-03-25T03:46:49;100345.94;;;6.38
55038;BMP280;40937;53.594;10.034;2024-03-25T03:49:15;100348.97;;;6.35
55038;BMP280;40937;53.594;10.034;2024-03-25T03:51:43;100348.97;;;6.35
55038;BMP280;40937;53.594;10.034;2024-03-25T03:54:10;100354.91;;;6.23
55038;BMP280;40937;53.594;10.034;2024-03-25T03:56:39;100367.00;;;6.24
55038;BMP280;40937;53.594;10.034;2024-03-25T03:59:05;100361.16;;;6.16
55038;BMP280;40937;53.594;10.034;2024-03-25T04:01:33;100358.88;;;6.33
55038;BMP280;40937;53.594;10.034;2024-03-25T04:04:02;100357.66;;;6.28
55038;BMP280;40937;53.594;10.034;2024-03-25T04:06:32;100358.50;;;6.22
55038;BMP280;40937;53.594;10.034;2024-03-25T04:09:00;100365.78;;;6.20
55038;BMP280;40937;53.594;10.034;2024-03-25T04:11:30;100375.41;;;6.26
55038;BMP280;40937;53.594;10.034;2024-03-25T04:13:56;100375.13;;;6.41
55038;BMP280;40937;53.594;10.034;2024-03-25T04:16:23;100382.03;;;6.36
55038;BMP280;40937;53.594;10.034;2024-03-25T04:18:49;100384.66;;;6.36
55038;BMP280;40937;53.594;10.034;2024-03-25T04:21:17;100378.78;;;6.34
55038;BMP280;40937;53.594;10.034;2024-03-25T04:23:43;100390.47;;;6.38
55038;BMP280;40937;53.594;10.034;2024-03-25T04:26:13;100393.34;;;6.30
55038;BMP280;40937;53.594;10.034;2024-03-25T04:28:39;100395.75;;;6.31
55038;BMP280;40937;53.594;10.034;2024-03-25T04:31:07;100399.16;;;6.32
55038;BMP280;40937;53.594;10.034;2024-03-25T04:33:34;100399.56;;;6.28
55038;BMP280;40937;53.594;10.034;2024-03-25T04:36:01;100401.97;;;6.37
55038;BMP280;40937;53.594;10.034;2024-03-25T04:38:27;100407.59;;;6.34
55038;BMP280;40937;53.594;10.034;2024-03-25T04:40:58;100404.81;;;6.28
55038;BMP280;40937;53.594;10.034;2024-03-25T04:43:26;100417.50;;;6.32
55038;BMP280;40937;53.594;10.034;2024-03-25T04:45:52;100421.75;;;6.33
55038;BMP280;40937;53.594;10.034;2024-03-25T04:48:21;100420.50;;;6.35
55038;BMP280;40937;53.594;10.034;2024-03-25T04:50:47;100424.75;;;6.30
55038;BMP280;40937;53.594;10.034;2024-03-25T04:53:14;100433.41;;;6.37
55038;BMP280;40937;53.594;10.034;2024-03-25T04:55:46;100432.22;;;6.33
55038;BMP280;40937;53.594;10.034;2024-03-25T04:58:15;100438.66;;;6.30
55038;BMP280;40937;53.594;10.034;2024-03-25T05:00:43;100436.88;;;6.31
55038;BMP280;40937;53.594;10.034;2024-03-25T05:03:10;100439.81;;;6.41
55038;BMP280;40937;53.594;10.034;2024-03-25T05:05:36;100443.88;;;6.37
55038;BMP280;40937;53.594;10.034;2024-03-25T05:08:03;100441.25;;;6.37
55038;BMP280;40937;53.594;10.034;2024-03-25T05:10:30;100441.66;;;6.34
55038;BMP280;40937;53.594;10.034;2024-03-25T05:12:56;100439.41;;;6.44
55038;BMP280;40937;53.594;10.034;2024-03-25T05:15:23;100444.25;;;6.40
55038;BMP280;40937;53.594;10.034;2024-03-25T05:17:58;100443.03;;;6.50
55038;BMP280;40937;53.594;10.034;2024-03-25T05:20:25;100455.31;;;6.49
55038;BMP280;40937;53.594;10.034;2024-03-25T05:22:51;100453.31;;;6.51
55038;BMP280;40937;53.594;10.034;2024-03-25T05:25:17;100453.44;;;6.56
55038;BMP280;40937;53.594;10.034;2024-03-25T05:27:47;100450.06;;;6.49
55038;BMP280;40937;53.594;10.034;2024-03-25T05:30:16;100455.13;;;6.44
55038;BMP280;40937;53.594;10.034;2024-03-25T05:32:47;100468.03;;;6.39
55038;BMP280;40937;53.594;10.034;2024-03-25T05:35:14;100464.38;;;6.40
55038;BMP280;40937;53.594;10.034;2024-03-25T05:37:41;100472.25;;;6.40
55038;BMP280;40937;53.594;10.034;2024-03-25T05:40:08;100463.97;;;6.43
55038;BMP280;40937;53.594;10.034;2024-03-25T05:42:35;100470.44;;;6.47
55038;BMP280;40937;53.594;10.034;2024-03-25T05:45:02;100472.88;;;6.42
55038;BMP280;40937;53.594;10.034;2024-03-25T05:47:29;100476.34;;;6.36
55038;BMP280;40937;53.594;10.034;2024-03-25T05:49:55;100479.75;;;6.36
55038;BMP280;40937;53.594;10.034;2024-03-25T05:52:23;100481.78;;;6.34
55038;BMP280;40937;53.594;10.034;2024-03-25T05:54:49;100480.97;;;6.34
55038;BMP280;40937;53.594;10.034;2024-03-25T05:57:18;100476.53;;;6.34
55038;BMP280;40937;53.594;10.034;2024-03-25T05:59:45;100476.50;;;6.41
55038;BMP280;40937;53.594;10.034;2024-03-25T06:02:11;100477.28;;;6.41
55038;BMP280;40937;53.594;10.034;2024-03-25T06:04:37;100471.84;;;6.43
55038;BMP280;40937;53.594;10.034;2024-03-25T06:07:06;100483.72;;;6.52
55038;BMP280;40937;53.594;10.034;2024-03-25T06:09:34;100478.31;;;6.47
55038;BMP280;40937;53.594;10.034;2024-03-25T06:12:02;100489.75;;;6.59
55038;BMP280;40937;53.594;10.034;2024-03-25T06:14:28;100491.31;;;6.67
55038;BMP280;40937;53.594;10.034;2024-03-25T06:16:55;100493.78;;;6.62
55038;BMP280;40937;53.594;10.034;2024-03-25T06:19:21;100489.78;;;6.53
55038;BMP280;40937;53.594;10.034;2024-03-25T06:21:51;100496.63;;;6.47
55038;BMP280;40937;53.594;10.034;2024-03-25T06:24:17;100490.56;;;6.53
55038;BMP280;40937;53.594;10.034;2024-03-25T06:26:44;100500.28;;;6.53
55038;BMP280;40937;53.594;10.034;2024-03-25T06:29:15;100508.34;;;6.51
55038;BMP280;40937;53.594;10.034;2024-03-25T06:31:42;100502.06;;;6.52
55038;BMP280;40937;53.594;10.034;2024-03-25T06:34:26;100514.13;;;6.53
55038;BMP280;40937;53.594;10.034;2024-03-25T06:36:53;100519.03;;;6.50
55038;BMP280;40937;53.594;10.034;2024-03-25T06:39:19;100516.41;;;6.50
55038;BMP280;40937;53.594;10.034;2024-03-25T06:41:46;100514.72;;;6.55
55038;BMP280;40937;53.594;10.034;2024-03-25T06:44:13;100524.22;;;6.56
55038;BMP280;40937;53.594;10.034;2024-03-25T06:46:39;100527.63;;;6.63
55038;BMP280;40937;53.594;10.034;2024-03-25T06:49:06;100537.69;;;6.66
55038;BMP280;40937;53.594;10.034;2024-03-25T06:51:32;100542.13;;;6.73
55038;BMP280;40937;53.594;10.034;2024-03-25T06:53:59;100541.69;;;6.76
55038;BMP280;40937;53.594;10.034;2024-03-25T06:56:28;100545.78;;;6.58
55038;BMP280;40937;53.594;10.034;2024-03-25T06:59:00;100543.41;;;6.50
55038;BMP280;40937;53.594;10.034;2024-03-25T07:01:27;100544.00;;;6.52
55038;BMP280;40937;53.594;10.034;2024-03-25T07:03:54;100546.19;;;6.62
55038;BMP280;40937;53.594;10.034;2024-03-25T07:06:20;100551.88;;;6.45
55038;BMP280;40937;53.594;10.034;2024-03-25T07:08:47;100555.50;;;6.51
55038;BMP280;40937;53.594;10.034;2024-03-25T07:11:13;100550.25;;;6.51
55038;BMP280;40937;53.594;10.034;2024-03-25T07:13:40;100556.25;;;6.58
55038;BMP280;40937;53.594;10.034;2024-03-25T07:16:09;100562.91;;;6.61
55038;BMP280;40937;53.594;10.034;2024-03-25T07:18:41;100561.88;;;6.69
55038;BMP280;40937;53.594;10.034;2024-03-25T07:21:08;100555.44;;;6.64
55038;BMP280;40937;53.594;10.034;2024-03-25T07:23:36;100565.06;;;6.71
55038;BMP280;40937;53.594;10.034;2024-03-25T07:26:03;100570.28;;;6.84
55038;BMP280;40937;53.594;10.034;2024-03-25T07:28:29;100570.72;;;6.68
55038;BMP280;40937;53.594;10.034;2024-03-25T07:30:55;100572.75;;;6.72
55038;BMP280;40937;53.594;10.034;2024-03-25T07:33:23;100564.72;;;6.60
55038;BMP280;40937;53.594;10.034;2024-03-25T07:35:52;100574.41;;;6.60
55038;BMP280;40937;53.594;10.034;2024-03-25T07:38:18;100571.00;;;7.04
55038;BMP280;40937;53.594;10.034;2024-03-25T07:40:47;100574.94;;;7.20
55038;BMP280;40937;53.594;10.034;2024-03-25T07:43:16;100575.59;;;7.09
55038;BMP280;40937;53.594;10.034;2024-03-25T07:45:42;100575.81;;;7.08
55038;BMP280;40937;53.594;10.034;2024-03-25T07:48:09;100576.00;;;7.13
55038;BMP280;40937;53.594;10.034;2024-03-25T07:50:36;100581.66;;;7.10
55038;BMP280;40937;53.594;10.034;2024-03-25T07:53:04;100583.88;;;7.06
55038;BMP280;40937;53.594;10.034;2024-03-25T07:55:37;100583.56;;;6.89
55038;BMP280;40937;53.594;10.034;2024-03-25T07:58:06;100591.47;;;6.82
55038;BMP280;40937;53.594;10.034;2024-03-25T08:00:32;100597.69;;;6.88
55038;BMP280;40937;53.594;10.034;2024-03-25T08:03:03;100591.06;;;6.79
55038;BMP280;40937;53.594;10.034;2024-03-25T08:05:30;100600.31;;;6.88
55038;BMP280;40937;53.594;10.034;2024-03-25T08:07:57;100601.75;;;6.84
55038;BMP280;40937;53.594;10.034;2024-03-25T08:10:24;100602.53;;;6.91
55038;BMP280;40937;53.594;10.034;2024-03-25T08:12:50;100603.34;;;6.92
55038;BMP280;40937;53.594;10.034;2024-03-25T08:15:16;100616.19;;;7.00
55038;BMP280;40937;53.594;10.034;2024-03-25T08:17:43;100617.47;;;6.91
55038;BMP280;40937;53.594;10.034;2024-03-25T08:20:10;100613.81;;;6.85
55038;BMP280;40937;53.594;10.034;2024-03-25T08:22:36;100615.00;;;6.96
55038;BMP280;40937;53.594;10.034;2024-03-25T08:25:04;100618.88;;;6.87
55038;BMP280;40937;53.594;10.034;2024-03-25T08:27:32;100618.66;;;6.88
55038;BMP280;40937;53.594;10.034;2024-03-25T08:29:58;100614.19;;;6.95
55038;BMP280;40937;53.594;10.034;2024-03-25T08:32:24;100617.41;;;6.97
55038;BMP280;40937;53.594;10.034;2024-03-25T08:34:50;100620.66;;;6.99
55038;BMP280;40937;53.594;10.034;2024-03-25T08:37:17;100624.63;;;7.09
55038;BMP280;40937;53.594;10.034;2024-03-25T08:39:43;100620.00;;;7.11
55038;BMP280;40937;53.594;10.034;2024-03-25T08:42:10;100627.03;;;7.17
55038;BMP280;40937;53.594;10.034;2024-03-25T08:44:37;100618.13;;;7.18
55038;BMP280;40937;53.594;10.034;2024-03-25T08:47:03;100615.06;;;7.28
55038;BMP280;40937;53.594;10.034;2024-03-25T08:49:30;100616.03;;;7.40
55038;BMP280;40937;53.594;10.034;2024-03-25T08:51:56;100615.38;;;7.45
55038;BMP280;40937;53.594;10.034;2024-03-25T08:54:22;100614.53;;;7.51
55038;BMP280;40937;53.594;10.034;2024-03-25T08:56:49;100621.97;;;7.54
55038;BMP280;40937;53.594;10.034;2024-03-25T08:59:16;100619.00;;;7.43
55038;BMP280;40937;53.594;10.034;2024-03-25T09:01:42;100624.41;;;7.49
55038;BMP280;40937;53.594;10.034;2024-03-25T09:04:09;100619.25;;;7.35
55038;BMP280;40937;53.594;10.034;2024-03-25T09:06:35;100631.78;;;7.33
55038;BMP280;40937;53.594;10.034;2024-03-25T09:09:02;100629.00;;;7.28
55038;BMP280;40937;53.594;10.034;2024-03-25T09:11:47;100630.03;;;7.27
55038;BMP280;40937;53.594;10.034;2024-03-25T09:14:13;100633.78;;;7.31
55038;BMP280;40937;53.594;10.034;2024-03-25T09:16:41;100628.53;;;7.31
55038;BMP280;40937;53.594;10.034;2024-03-25T09:19:07;100623.81;;;7.47
55038;BMP280;40937;53.594;10.034;2024-03-25T09:21:33;100620.31;;;7.59
55038;BMP280;40937;53.594;10.034;2024-03-25T09:24:00;100627.13;;;7.67
55038;BMP280;40937;53.594;10.034;2024-03-25T09:26:26;100628.66;;;7.82
55038;BMP280;40937;53.594;10.034;2024-03-25T09:28:55;100630.25;;;7.83
55038;BMP280;40937;53.594;10.034;2024-03-25T09:31:21;100632.16;;;7.94
55038;BMP280;40937;53.594;10.034;2024-03-25T09:33:49;100635.34;;;8.03
55038;BMP280;40937;53.594;10.034;2024-03-25T09:36:15;100637.91;;;8.09
55038;BMP280;40937;53.594;10.034;2024-03-25T09:38:41;100622.53;;;8.13
55038;BMP280;40937;53.594;10.034;2024-03-25T09:41:09;100626.75;;;8.14
55038;BMP280;40937;53.594;10.034;2024-03-25T09:43:43;100632.81;;;8.14
55038;BMP280;40937;53.594;10.034;2024-03-25T09:46:10;100633.53;;;8.22
55038;BMP280;40937;53.594;10.034;2024-03-25T09:48:36;100627.94;;;8.18
55038;BMP280;40937;53.594;10.034;2024-03-25T09:51:05;100629.47;;;8.26
55038;BMP280;40937;53.594;10.034;2024-03-25T09:53:31;100634.00;;;8.37
55038;BMP280;40937;53.594;10.034;2024-03-25T09:55:57;100636.63;;;8.37
55038;BMP280;40937;53.594;10.034;2024-03-25T09:58:25;100640.31;;;8.36
55038;BMP280;40937;53.594;10.034;2024-03-25T10:00:52;100642.31;;;8.34
55038;BMP280;40937;53.594;10.034;2024-03-25T10:03:18;100651.44;;;8.31
55038;BMP280;40937;53.594;10.034;2024-03-25T10:05:45;100663.59;;;8.07
55038;BMP280;40937;53.594;10.034;2024-03-25T10:08:12;100660.34;;;7.87
55038;BMP280;40937;53.594;10.034;2024-03-25T10:10:40;100660.16;;;7.82
55038;BMP280;40937;53.594;10.034;2024-03-25T10:13:06;100663.78;;;7.80
55038;BMP280;40937;53.594;10.034;2024-03-25T10:15:33;100652.47;;;7.87
55038;BMP280;40937;53.594;10.034;2024-03-25T10:17:59;100660.06;;;7.95
55038;BMP280;40937;53.594;10.034;2024-03-25T10:20:25;100648.25;;;8.04
55038;BMP280;40937;53.594;10.034;2024-03-25T10:22:52;100647.38;;;8.10
55038;BMP280;40937;53.594;10.034;2024-03-25T10:25:24;100648.59;;;8.14
55038;BMP280;40937;53.594;10.034;2024-03-25T10:27:54;100647.75;;;8.21
55038;BMP280;40937;53.594;10.034;2024-03-25T10:30:21;100648.38;;;8.16
55038;BMP280;40937;53.594;10.034;2024-03-25T10:32:57;100639.63;;;8.22
55038;BMP280;40937;53.594;10.034;2024-03-25T10:35:26;100640.31;;;8.36
55038;BMP280;40937;53.594;10.034;2024-03-25T10:37:55;100642.06;;;8.42
55038;BMP280;40937;53.594;10.034;2024-03-25T10:40:27;100648.19;;;8.36
55038;BMP280;40937;53.594;10.034;2024-03-25T10:43:00;100649.56;;;8.38
55038;BMP280;40937;53.594;10.034;2024-03-25T10:45:29;100646.00;;;8.51
55038;BMP280;40937;53.594;10.034;2024-03-25T10:47:57;100643.22;;;8.65
55038;BMP280;40937;53.594;10.034;2024-03-25T10:50:26;100637.00;;;8.77
55038;BMP280;40937;53.594;10.034;2024-03-25T10:52:54;100646.88;;;8.82
55038;BMP280;40937;53.594;10.034;2024-03-25T10:55:21;100649.16;;;8.79
55038;BMP280;40937;53.594;10.034;2024-03-25T10:57:49;100654.94;;;8.69
55038;BMP280;40937;53.594;10.034;2024-03-25T11:00:17;100663.25;;;8.66
55038;BMP280;40937;53.594;10.034;2024-03-25T11:02:43;100654.19;;;8.80
55038;BMP280;40937;53.594;10.034;2024-03-25T11:05:10;100651.56;;;8.80
55038;BMP280;40937;53.594;10.034;2024-03-25T11:07:38;100652.88;;;8.71
55038;BMP280;40937;53.594;10.034;2024-03-25T11:10:05;100653.31;;;8.68
55038;BMP280;40937;53.594;10.034;2024-03-25T11:12:32;100650.56;;;8.81
55038;BMP280;40937;53.594;10.034;2024-03-25T11:15:02;100657.91;;;8.91
55038;BMP280;40937;53.594;10.034;2024-03-25T11:17:33;100649.34;;;8.95
55038;BMP280;40937;53.594;10.034;2024-03-25T11:20:11;100653.75;;;9.02
55038;BMP280;40937;53.594;10.034;2024-03-25T11:22:48;100652.44;;;8.92
55038;BMP280;40937;53.594;10.034;2024-03-25T11:25:15;100650.94;;;8.96
55038;BMP280;40937;53.594;10.034;2024-03-25T11:27:45;100657.13;;;8.90
55038;BMP280;40937;53.594;10.034;2024-03-25T11:30:16;100663.38;;;8.89
55038;BMP280;40937;53.594;10.034;2024-03-25T11:32:49;100654.69;;;8.89
55038;BMP280;40937;53.594;10.034;2024-03-25T11:35:17;100651.47;;;8.87
55038;BMP280;40937;53.594;10.034;2024-03-25T11:37:44;100651.69;;;8.67
55038;BMP280;40937;53.594;10.034;2024-03-25T11:40:11;100652.41;;;8.74
55038;BMP280;40937;53.594;10.034;2024-03-25T11:42:38;100646.94;;;8.75
55038;BMP280;40937;53.594;10.034;2024-03-25T11:45:05;100648.19;;;8.91
55038;BMP280;40937;53.594;10.034;2024-03-25T11:47:33;100641.81;;;8.99
55038;BMP280;40937;53.594;10.034;2024-03-25T11:49:59;100632.94;;;9.12
55038;BMP280;40937;53.594;10.034;2024-03-25T11:52:30;100631.13;;;9.24
55038;BMP280;40937;53.594;10.034;2024-03-25T11:54:56;100637.69;;;9.33
55038;BMP280;40937;53.594;10.034;2024-03-25T11:57:23;100629.34;;;9.37
55038;BMP280;40937;53.594;10.034;2024-03-25T11:59:49;100634.19;;;9.40
55038;BMP280;40937;53.594;10.034;2024-03-25T12:02:16;100629.41;;;9.48
55038;BMP280;40937;53.594;10.034;2024-03-25T12:04:44;100633.09;;;9.59
55038;BMP280;40937;53.594;10.034;2024-03-25T12:07:14;100626.31;;;9.63
55038;BMP280;40937;53.594;10.034;2024-03-25T12:09:41;100634.22;;;9.63
55038;BMP280;40937;53.594;10.034;2024-03-25T12:12:26;100635.84;;;9.64
55038;BMP280;40937;53.594;10.034;2024-03-25T12:14:53;100633.56;;;9.80
55038;BMP280;40937;53.594;10.034;2024-03-25T12:17:21;100637.00;;;9.92
55038;BMP280;40937;53.594;10.034;2024-03-25T12:20:01;100637.22;;;10.02
55038;BMP280;40937;53.594;10.034;2024-03-25T12:22:30;100630.47;;;10.06
55038;BMP280;40937;53.594;10.034;2024-03-25T12:24:57;100629.66;;;10.06
55038;BMP280;40937;53.594;10.034;2024-03-25T12:27:24;100629.91;;;10.04
55038;BMP280;40937;53.594;10.034;2024-03-25T12:29:58;100630.38;;;10.01
55038;BMP280;40937;53.594;10.034;2024-03-25T12:32:35;100635.66;;;9.78
55038;BMP280;40937;53.594;10.034;2024-03-25T12:35:06;100625.56;;;9.74
55038;BMP280;40937;53.594;10.034;2024-03-25T12:37:33;100625.78;;;9.73
55038;BMP280;40937;53.594;10.034;2024-03-25T12:39:59;100626.56;;;9.73
55038;BMP280;40937;53.594;10.034;2024-03-25T12:42:25;100627.41;;;9.86
55038;BMP280;40937;53.594;10.034;2024-03-25T12:44:52;100624.84;;;9.91
55038;BMP280;40937;53.594;10.034;2024-03-25T12:47:19;100626.69;;;10.02
55038;BMP280;40937;53.594;10.034;2024-03-25T12:49:45;100615.00;;;10.22
55038;BMP280;40937;53.594;10.034;2024-03-25T12:52:13;100616.94;;;10.38
55038;BMP280;40937;53.594;10.034;2024-03-25T12:54:39;100610.44;;;10.58
55038;BMP280;40937;53.594;10.034;2024-03-25T12:57:05;100601.78;;;10.74
55038;BMP280;40937;53.594;10.034;2024-03-25T12:59:31;100596.47;;;10.86
55038;BMP280;40937;53.594;10.034;2024-03-25T13:01:58;100601.38;;;10.94
55038;BMP280;40937;53.594;10.034;2024-03-25T13:04:25;100597.63;;;11.07
55038;BMP280;40937;53.594;10.034;2024-03-25T13:06:52;100598.00;;;11.16
55038;BMP280;40937;53.594;10.034;2024-03-25T13:09:20;100605.91;;;11.27
55038;BMP280;40937;53.594;10.034;2024-03-25T13:11:46;100606.59;;;11.40
55038;BMP280;40937;53.594;10.034;2024-03-25T13:14:13;100610.53;;;11.37
55038;BMP280;40937;53.594;10.034;2024-03-25T13:16:39;100610.16;;;11.00
55038;BMP280;40937;53.594;10.034;2024-03-25T13:19:06;100605.03;;;10.93
55038;BMP280;40937;53.594;10.034;2024-03-25T13:21:33;100622.63;;;10.87
55038;BMP280;40937;53.594;10.034;2024-03-25T13:23:59;100617.16;;;10.77
55038;BMP280;40937;53.594;10.034;2024-03-25T13:26:27;100619.81;;;10.77
55038;BMP280;40937;53.594;10.034;2024-03-25T13:28:53;100623.84;;;10.68
55038;BMP280;40937;53.594;10.034;2024-03-25T13:31:20;100618.34;;;10.58
55038;BMP280;40937;53.594;10.034;2024-03-25T13:33:46;100618.72;;;10.49
55038;BMP280;40937;53.594;10.034;2024-03-25T13:36:12;100615.47;;;10.19
55038;BMP280;40937;53.594;10.034;2024-03-25T13:38:38;100617.53;;;10.17
55038;BMP280;40937;53.594;10.034;2024-03-25T13:41:05;100613.50;;;10.02
55038;BMP280;40937;53.594;10.034;2024-03-25T13:43:34;100621.91;;;9.99
55038;BMP280;40937;53.594;10.034;2024-03-25T13:46:00;100613.63;;;10.19
55038;BMP280;40937;53.594;10.034;2024-03-25T13:48:26;100612.53;;;10.44
55038;BMP280;40937;53.594;10.034;2024-03-25T13:50:53;100620.97;;;10.58
55038;BMP280;40937;53.594;10.034;2024-03-25T13:53:20;100609.59;;;10.69
55038;BMP280;40937;53.594;10.034;2024-03-25T13:55:46;100613.56;;;10.83
55038;BMP280;40937;53.594;10.034;2024-03-25T13:58:13;100615.59;;;10.93